Time;durP1;ratioP1;P1;durP2;ratioP2;P2;SDS_P1;SDS_P2;PMS_P1;PMS_P2;Temp;Humidity;BMP_temperature;BMP_pressure;BME280_temperature;BME280_humidity;BME280_pressure;Samples;Min_cycle;Max_cycle;Signal;HPM_P1;HPM_P2
2022/05/05 00:01:59;;;;;;;3.30;3.00;;;;;;;14.36;62.18;101241.97;4995629;28;101976;-48
2022/05/05 00:04:29;;;;;;;4.63;3.08;;;;;;;14.36;61.95;101261.16;5010486;28;102249;-48
2022/05/05 00:06:55;;;;;;;;;;;;;;;14.36;62.10;101261.16;5010386;28;102047;-48
2022/05/05 00:09:22;;;;;;;3.83;3.17;;;;;;;14.36;62.22;101261.16;5009851;28;103828;-47
2022/05/05 00:14:34;;;;;;;4.40;3.47;;;;;;;14.35;62.37;101262.22;5010615;28;102273;-48
2022/05/05 00:17:04;;;;;;;3.88;3.42;;;;;;;14.36;61.92;101263.88;5012168;28;102394;-48
2022/05/05 00:19:34;;;;;;;3.47;3.17;;;;;;;14.35;62.00;101264.97;5009698;28;104049;-47
2022/05/05 00:22:00;;;;;;;3.08;2.88;;;;;;;14.35;61.85;101270.44;5011088;28;102349;-47
2022/05/05 00:24:27;;;;;;;3.65;3.10;;;;;;;14.35;62.04;101264.97;5009068;28;102683;-49
2022/05/05 00:26:54;;;;;;;3.50;3.00;;;;;;;14.34;62.06;101272.38;5012065;28;102782;-48
2022/05/05 00:29:20;;;;;;;3.63;2.90;;;;;;;14.35;61.89;101281.38;4996816;28;104124;-48
2022/05/05 00:31:50;;;;;;;4.15;3.30;;;;;;;14.35;61.82;101276.75;4994549;28;102526;-47
2022/05/05 00:34:17;;;;;;;3.40;3.10;;;;;;;14.35;62.18;101289.59;4999857;28;101888;-48
2022/05/05 00:36:45;;;;;;;3.20;2.72;;;;;;;14.34;62.30;101287.97;5011710;28;102261;-47
2022/05/05 00:39:12;;;;;;;3.00;2.70;;;;;;;14.34;62.06;101294.25;5010086;28;104099;-48
2022/05/05 00:41:46;;;;;;;3.20;2.90;;;;;;;14.35;61.84;101295.09;5012970;28;102529;-48
2022/05/05 00:44:14;;;;;;;5.13;3.63;;;;;;;14.35;62.09;101297.81;5013212;28;102478;-48
2022/05/05 00:46:47;;;;;;;3.17;2.88;;;;;;;14.34;61.98;101302.47;5009516;28;104105;-49
2022/05/05 00:49:14;;;;;;;4.38;3.00;;;;;;;14.36;62.02;101299.47;5007475;28;103954;-50
2022/05/05 00:51:42;;;;;;;3.63;3.17;;;;;;;14.34;62.34;101312.63;5014051;28;102402;-48
2022/05/05 00:54:10;;;;;;;3.20;2.90;;;;;;;14.35;62.28;101311.50;5012596;28;102504;-46
2022/05/05 00:56:38;;;;;;;3.63;3.28;;;;;;;14.34;62.00;101318.91;5005532;28;102292;-47
2022/05/05 00:59:05;;;;;;;4.97;3.20;;;;;;;14.34;61.87;101320.84;5003998;28;103925;-47
2022/05/05 01:01:34;;;;;;;3.13;2.83;;;;;;;14.34;62.06;101323.56;5008283;28;101947;-47
2022/05/05 01:04:00;;;;;;;3.42;3.10;;;;;;;14.35;62.28;101325.19;5008019;28;102314;-47
2022/05/05 01:06:28;;;;;;;3.95;3.08;;;;;;;14.34;62.13;101323.56;5014490;28;102320;-48
2022/05/05 01:08:56;;;;;;;3.65;2.80;;;;;;;14.34;62.15;101337.25;5004420;28;103921;-46
2022/05/05 01:11:23;;;;;;;3.10;2.78;;;;;;;14.34;61.91;101340.81;4998978;28;102277;-48
2022/05/05 01:13:50;;;;;;;4.10;2.53;;;;;;;14.33;62.11;101338.38;5013100;28;102310;-48
2022/05/05 01:16:17;;;;;;;4.00;2.90;;;;;;;14.33;62.17;101339.19;5014425;28;102430;-46
2022/05/05 01:18:44;;;;;;;2.75;2.42;;;;;;;14.33;62.28;101338.38;5012292;27;105153;-47
2022/05/05 01:21:11;;;;;;;3.40;3.08;;;;;;;14.33;62.14;101350.13;5013463;28;101944;-48
2022/05/05 01:23:39;;;;;;;3.53;2.92;;;;;;;14.33;61.95;101346.59;5000420;28;102427;-48
2022/05/05 01:28:52;;;;;;;2.25;2.13;;;;;;;14.32;61.82;101353.97;4992501;28;103883;-47
2022/05/05 01:31:19;;;;;;;2.65;2.45;;;;;;;14.33;62.09;101343.84;5001492;28;102079;-48
2022/05/05 01:33:49;;;;;;;3.17;2.70;;;;;;;14.32;62.09;101353.16;4999010;28;102887;-48
2022/05/05 01:36:15;;;;;;;4.55;2.70;;;;;;;14.32;62.06;101353.16;5008647;28;102102;-48
2022/05/05 01:38:44;;;;;;;4.03;2.75;;;;;;;14.31;61.68;101354.25;4996740;28;103801;-48
2022/05/05 01:41:13;;;;;;;3.08;2.70;;;;;;;14.32;61.86;101347.69;4993409;28;102454;-48
2022/05/05 01:43:41;;;;;;;5.07;2.50;;;;;;;14.31;61.95;101359.72;4992115;28;102075;-48
2022/05/05 01:46:09;;;;;;;3.93;2.80;;;;;;;14.31;62.08;101354.25;4994280;28;102741;-49
2022/05/05 01:48:35;;;;;;;2.75;2.55;;;;;;;14.31;62.04;101366.00;5000742;28;103988;-49
2022/05/05 01:51:04;;;;;;;4.35;2.80;;;;;;;14.32;62.00;101372.34;4998004;28;102581;-48
2022/05/05 01:53:36;;;;;;;3.30;2.78;;;;;;;14.32;62.23;101375.06;4992317;28;101893;-48
2022/05/05 01:56:08;;;;;;;3.28;2.35;;;;;;;14.32;62.01;101375.06;4993206;28;102128;-47
2022/05/05 01:58:35;;;;;;;3.08;2.83;;;;;;;14.30;62.00;101375.34;4992115;28;104017;-47
2022/05/05 02:01:01;;;;;;;3.15;2.60;;;;;;;14.31;61.82;101376.97;4992980;28;102013;-48
2022/05/05 02:03:28;;;;;;;3.05;2.60;;;;;;;14.31;61.75;101381.63;4991919;28;102480;-48
2022/05/05 02:05:54;;;;;;;2.80;2.30;;;;;;;14.31;61.90;101387.09;5006475;28;101958;-47
2022/05/05 02:08:22;;;;;;;2.50;2.30;;;;;;;14.30;61.72;101382.72;5009047;28;103935;-49
2022/05/05 02:10:50;;;;;;;2.83;2.30;;;;;;;14.29;61.68;101383.84;4992339;28;102627;-49
2022/05/05 02:13:19;;;;;;;3.50;2.72;;;;;;;14.30;61.77;101388.22;4997504;28;101872;-47
2022/05/05 02:15:46;;;;;;;3.40;2.88;;;;;;;14.29;61.81;101392.88;5013305;28;102148;-49
2022/05/05 02:18:13;;;;;;;3.05;2.53;;;;;;;14.30;61.42;101393.69;5001844;28;104087;-47
2022/05/05 02:20:41;;;;;;;2.33;2.13;;;;;;;14.29;61.64;101389.31;5012446;28;102451;-47
2022/05/05 02:23:09;;;;;;;2.47;2.28;;;;;;;14.29;61.82;101394.78;5012135;28;101992;-48
2022/05/05 02:25:36;;;;;;;3.17;2.55;;;;;;;14.30;61.88;101399.97;5009055;28;102117;-48
2022/05/05 02:28:03;;;;;;;2.90;2.60;;;;;;;14.29;61.77;101403.81;4991065;28;103883;-46
2022/05/05 02:30:31;;;;;;;3.22;2.50;;;;;;;14.29;61.55;101408.47;4991665;28;102354;-47
2022/05/05 02:32:58;;;;;;;2.88;2.20;;;;;;;14.28;61.80;101406.81;4991775;28;102363;-48
2022/05/05 02:35:25;;;;;;;2.30;2.10;;;;;;;14.29;61.81;101408.47;4992569;28;102383;-48
2022/05/05 02:40:37;;;;;;;2.80;2.30;;;;;;;14.28;61.62;101415.03;4999793;28;102364;-49
2022/05/05 02:43:04;;;;;;;3.83;2.25;;;;;;;14.28;61.48;101423.25;5009845;28;101921;-47
2022/05/05 02:45:33;;;;;;;3.38;2.58;;;;;;;14.29;61.53;101424.91;4993340;28;102420;-45
2022/05/05 02:47:59;;;;;;;2.35;2.00;;;;;;;14.27;61.59;101427.09;4991518;28;103970;-48
2022/05/05 02:50:26;;;;;;;2.20;2.00;;;;;;;14.28;61.80;101436.94;5010343;28;102392;-47
2022/05/05 02:52:52;;;;;;;3.17;2.50;;;;;;;14.27;61.61;101440.78;5011385;28;102353;-46
2022/05/05 02:55:21;;;;;;;4.43;2.40;;;;;;;14.27;61.56;101446.25;5011759;28;102153;-48
2022/05/05 02:57:47;;;;;;;2.60;2.38;;;;;;;14.28;61.71;101461.59;5002468;28;104116;-49
2022/05/05 03:00:14;;;;;;;2.47;2.28;;;;;;;14.27;61.83;101460.75;5003913;28;102029;-48
2022/05/05 03:02:45;;;;;;;3.45;2.10;;;;;;;14.27;61.87;101457.22;5004248;28;102471;-47
2022/05/05 03:05:13;;;;;;;2.55;2.20;;;;;;;14.27;61.76;101476.38;5010286;28;102325;-49
2022/05/05 03:07:44;;;;;;;2.43;2.03;;;;;;;14.26;61.93;101467.34;4990725;28;104051;-48
2022/05/05 03:10:12;;;;;;;3.45;2.60;;;;;;;14.27;61.93;101465.44;4991559;28;102736;-48
2022/05/05 03:12:38;;;;;;;2.15;1.90;;;;;;;14.26;62.09;101481.03;4991811;28;102372;-48
2022/05/05 03:15:06;;;;;;;2.28;2.03;;;;;;;14.27;61.73;101484.59;4992390;28;102257;-47
2022/05/05 03:17:35;;;;;;;2.38;2.17;;;;;;;14.26;61.93;101482.97;4994118;28;103919;-47
2022/05/05 03:20:04;;;;;;;3.22;2.13;;;;;;;14.26;61.74;101481.03;5011679;28;102468;-48
2022/05/05 03:22:30;;;;;;;3.13;2.00;;;;;;;14.26;62.07;101483.78;5011028;28;102012;-47
2022/05/05 03:24:57;;;;;;;3.00;1.85;;;;;;;14.26;61.91;101491.16;5005875;28;102737;-47
2022/05/05 03:27:23;;;;;;;2.55;2.15;;;;;;;14.26;62.11;101491.16;5000250;28;104108;-47
2022/05/05 03:29:50;;;;;;;3.15;2.10;;;;;;;14.26;62.17;101496.66;4991223;28;102297;-48
2022/05/05 03:32:16;;;;;;;2.20;2.00;;;;;;;14.25;62.05;101505.97;4990950;28;102474;-47
2022/05/05 03:34:43;;;;;;;2.42;1.80;;;;;;;14.24;61.83;101509.78;4991950;28;102137;-47
2022/05/05 03:37:11;;;;;;;3.03;2.28;;;;;;;14.23;62.20;101516.38;4990981;28;104022;-47
2022/05/05 03:39:38;;;;;;;3.03;2.17;;;;;;;14.25;62.06;101527.88;4993782;28;101863;-49
2022/05/05 03:42:05;;;;;;;3.25;2.10;;;;;;;14.23;61.85;101530.06;5011057;28;101865;-47
2022/05/05 03:44:32;;;;;;;1.92;1.73;;;;;;;14.24;61.80;101528.94;5011828;28;102154;-46
2022/05/05 03:46:59;;;;;;;3.80;2.10;;;;;;;14.24;61.87;101537.16;5006451;28;103924;-47
2022/05/05 03:49:25;;;;;;;2.08;1.83;;;;;;;14.23;61.84;101541.81;5010285;28;101960;-46
2022/05/05 03:51:52;;;;;;;2.38;1.85;;;;;;;14.23;61.91;101549.22;5011239;28;102382;-46
2022/05/05 03:54:20;;;;;;;3.67;2.00;;;;;;;14.22;61.97;101539.38;5011637;28;102246;-48
2022/05/05 03:56:46;;;;;;;4.82;2.13;;;;;;;14.24;61.96;101550.84;5010148;28;103951;-48
2022/05/05 03:59:13;;;;;;;2.20;2.00;;;;;;;14.24;62.00;101559.06;4999386;28;102398;-47
2022/05/05 04:01:40;;;;;;;2.90;1.92;;;;;;;14.24;61.78;101564.53;5004236;28;102274;-49
2022/05/05 04:04:07;;;;;;;3.47;1.83;;;;;;;14.23;61.67;101560.97;5011319;28;102089;-48
2022/05/05 04:06:33;;;;;;;4.45;1.80;;;;;;;14.23;61.51;101558.25;5010466;28;103835;-46
2022/05/05 04:09:03;;;;;;;2.70;1.80;;;;;;;14.23;61.86;101569.19;5010566;28;102559;-48
2022/05/05 04:11:31;;;;;;;2.20;2.00;;;;;;;14.24;61.63;101570.00;5002100;28;102400;-47
2022/05/05 04:13:58;;;;;;;2.65;1.80;;;;;;;14.25;61.58;101568.94;4991878;28;102356;-48
2022/05/05 04:16:26;;;;;;;3.13;1.83;;;;;;;14.25;61.71;101560.72;4996769;28;103925;-45
2022/05/05 04:18:52;;;;;;;2.58;2.00;;;;;;;14.25;61.74;101568.94;4994066;28;102278;-50
2022/05/05 04:21:19;;;;;;;2.58;2.00;;;;;;;14.25;61.48;101571.69;4996609;28;102537;-47
2022/05/05 04:23:45;;;;;;;2.53;1.92;;;;;;;14.26;61.73;101573.31;4994852;28;102467;-46
2022/05/05 04:26:14;;;;;;;2.50;1.80;;;;;;;14.27;61.84;101566.72;5013783;28;104206;-48
2022/05/05 04:28:47;;;;;;;2.35;1.92;;;;;;;14.27;61.47;101574.94;5013449;28;102286;-48
2022/05/05 04:31:15;;;;;;;2.95;2.13;;;;;;;14.27;61.46;101569.47;5010874;28;101974;-48
2022/05/05 04:33:43;;;;;;;2.65;1.83;;;;;;;14.27;61.55;101577.69;4996245;28;102411;-48
2022/05/05 04:36:10;;;;;;;2.95;1.83;;;;;;;14.27;61.40;101574.94;4993729;28;104111;-47
2022/05/05 04:38:36;;;;;;;2.47;1.92;;;;;;;14.27;61.16;101583.97;4995076;28;101961;-47
2022/05/05 04:41:03;;;;;;;2.17;1.98;;;;;;;14.28;61.09;101584.78;4993681;28;101976;-49
2022/05/05 04:43:30;;;;;;;2.20;1.88;;;;;;;14.27;61.17;101574.94;4994563;28;102670;-49
2022/05/05 04:45:58;;;;;;;3.72;1.92;;;;;;;14.28;60.87;101587.53;4993581;28;103963;-47
2022/05/05 04:48:25;;;;;;;2.08;1.88;;;;;;;14.29;60.97;101584.53;4993389;28;102913;-48
2022/05/05 04:50:51;;;;;;;2.35;2.03;;;;;;;14.30;60.99;101593.56;4993212;28;102597;-49
2022/05/05 04:53:18;;;;;;;4.53;2.10;;;;;;;14.31;60.99;101595.19;4994649;28;102063;-48
2022/05/05 04:55:44;;;;;;;2.30;2.10;;;;;;;14.31;60.94;101592.47;4993170;28;103903;-48
2022/05/05 04:58:12;;;;;;;3.40;1.98;;;;;;;14.31;61.23;101586.97;4999468;28;102054;-49
2022/05/05 05:00:39;;;;;;;2.63;1.92;;;;;;;14.32;60.94;101594.13;5002607;28;102395;-47
2022/05/05 05:03:32;;;;;;;2.95;1.90;;;;;;;14.33;60.73;101593.00;5012496;28;102377;-49
2022/05/05 05:05:54;;;;;;;3.20;1.83;;;;;;;14.32;60.99;101591.38;4993227;28;103864;-46
2022/05/05 05:08:20;;;;;;;3.08;1.88;;;;;;;14.32;60.76;101597.69;4993748;28;102306;-48
2022/05/05 05:10:47;;;;;;;3.08;1.67;;;;;;;14.33;60.89;101591.09;4998687;28;102545;-49
2022/05/05 05:13:13;;;;;;;1.88;1.77;;;;;;;14.35;60.85;101601.75;5007383;28;102181;-47
2022/05/05 05:15:40;;;;;;;2.92;2.00;;;;;;;14.36;60.87;101600.69;4992833;28;104017;-47
2022/05/05 05:18:08;;;;;;;1.88;1.67;;;;;;;14.37;61.03;101602.31;4999796;28;102450;-47
2022/05/05 05:20:34;;;;;;;3.97;1.90;;;;;;;14.37;61.08;101605.06;5011553;28;102874;-48
2022/05/05 05:23:00;;;;;;;2.53;1.90;;;;;;;14.37;60.84;101607.78;5014267;28;102036;-49
2022/05/05 05:25:27;;;;;;;5.50;1.90;;;;;;;14.38;60.82;101610.25;5010806;28;103591;-48
2022/05/05 05:27:53;;;;;;;2.15;1.73;;;;;;;14.39;60.88;101600.97;5006427;27;101978;-48
2022/05/05 05:30:20;;;;;;;2.50;1.58;;;;;;;14.41;61.04;101608.88;5011197;28;102495;-45
2022/05/05 05:32:47;;;;;;;3.03;1.95;;;;;;;14.39;60.83;101606.44;5014076;28;102229;-48
2022/05/05 05:35:14;;;;;;;1.90;1.70;;;;;;;14.41;60.77;101606.16;5001328;28;103848;-48
2022/05/05 05:37:41;;;;;;;2.03;1.88;;;;;;;14.43;60.64;101606.69;4993065;28;102504;-48
2022/05/05 05:40:09;;;;;;;3.03;1.90;;;;;;;14.43;60.70;101606.69;5012716;28;102473;-51
2022/05/05 05:42:35;;;;;;;1.35;1.25;;;;;;;14.43;60.87;101601.22;5014246;28;102171;-47
2022/05/05 05:45:02;;;;;;;2.58;1.48;;;;;;;14.45;60.56;101604.50;5012308;28;103768;-47
2022/05/05 05:47:31;;;;;;;1.90;1.60;;;;;;;14.46;60.99;101611.63;5004952;28;102504;-47
2022/05/05 05:49:57;;;;;;;2.30;1.53;;;;;;;14.46;60.74;101611.63;4998766;28;102367;-48
2022/05/05 05:52:27;;;;;;;2.63;1.40;;;;;;;14.49;60.90;101618.47;4994223;28;102102;-47
2022/05/05 05:54:54;;;;;;;1.73;1.50;;;;;;;14.49;61.03;101616.53;5009429;28;103903;-48
2022/05/05 05:57:20;;;;;;;2.15;1.52;;;;;;;14.50;61.11;101607.28;4997189;28;102773;-47
2022/05/05 05:59:46;;;;;;;3.53;1.50;;;;;;;14.50;60.93;101618.22;5025736;27;102357;-47
2022/05/05 06:04:58;;;;;;;1.67;1.58;;;;;;;14.53;60.79;101612.19;5011334;28;103965;-48
2022/05/05 06:07:30;;;;;;;1.88;1.35;;;;;;;14.53;60.56;101620.41;5012950;28;101986;-47
2022/05/05 06:09:56;;;;;;;1.85;1.33;;;;;;;14.55;60.96;101615.47;5011530;28;102233;-47
2022/05/05 06:12:22;;;;;;;2.33;1.52;;;;;;;14.55;60.96;101615.47;5014945;28;102007;-48
2022/05/05 06:14:49;;;;;;;1.98;1.70;;;;;;;14.55;60.63;101620.94;5010095;28;104129;-47
2022/05/05 06:17:15;;;;;;;1.90;1.25;;;;;;;14.56;60.75;101625.31;5010647;28;102047;-47
2022/05/05 06:19:43;;;;;;;2.13;1.50;;;;;;;14.56;60.84;101622.59;5010128;28;102403;-48
2022/05/05 06:22:09;;;;;;;3.20;1.75;;;;;;;14.57;60.74;101618.78;5012050;28;102150;-47
2022/05/05 06:24:37;;;;;;;2.90;1.58;;;;;;;14.58;60.83;101625.06;5010205;28;103940;-48
2022/05/05 06:27:04;;;;;;;2.42;1.67;;;;;;;14.59;60.63;101626.69;5011288;28;103207;-48
2022/05/05 06:29:31;;;;;;;2.10;1.70;;;;;;;14.58;60.84;101627.81;5009268;28;102415;-48
2022/05/05 06:31:57;;;;;;;2.35;1.60;;;;;;;14.58;60.42;101636.84;5010199;28;102388;-49
2022/05/05 06:34:24;;;;;;;2.63;1.70;;;;;;;14.59;60.60;101638.47;5009645;28;104091;-49
2022/05/05 06:36:50;;;;;;;2.17;1.70;;;;;;;14.59;60.36;101637.66;5018663;28;102391;-49
2022/05/05 06:39:17;;;;;;;1.45;1.20;;;;;;;14.61;60.94;101646.44;4990703;28;102333;-48
2022/05/05 06:41:44;;;;;;;2.05;1.50;;;;;;;14.61;60.67;101636.28;4993383;28;102304;-48
2022/05/05 06:44:12;;;;;;;1.73;1.38;;;;;;;14.62;60.99;101637.94;4992233;28;103928;-47
2022/05/05 06:46:39;;;;;;;1.50;1.40;;;;;;;14.64;60.92;101638.47;5000416;28;102417;-46
2022/05/05 06:49:06;;;;;;;2.60;1.65;;;;;;;14.66;61.10;101639.00;4995138;28;102019;-48
2022/05/05 06:51:33;;;;;;;2.22;1.80;;;;;;;14.69;60.77;101642.31;4993569;28;102403;-48
2022/05/05 06:53:59;;;;;;;2.38;1.70;;;;;;;14.69;60.98;101654.09;5010699;28;103765;-47
2022/05/05 06:56:27;;;;;;;2.80;1.40;;;;;;;14.70;61.08;101649.44;4993648;28;102494;-47
2022/05/05 06:58:55;;;;;;;3.20;1.88;;;;;;;14.71;61.03;101642.84;5003612;28;104071;-47
2022/05/05 07:06:54;;;;;;;1.95;1.58;;;;;;;14.73;61.21;101648.88;5010621;28;101999;-48
2022/05/05 07:12:08;;;;;;;5.50;1.80;;;;;;;14.74;60.90;101661.47;5012759;28;101906;-48
2022/05/05 07:14:37;;;;;;;2.03;1.60;;;;;;;14.76;61.12;101664.78;4995217;28;103895;-48
2022/05/05 07:17:04;;;;;;;2.58;1.55;;;;;;;14.77;61.27;101667.22;4991908;28;102285;-48
2022/05/05 07:19:31;;;;;;;3.28;1.80;;;;;;;14.78;60.97;101660.63;4990921;28;102328;-47
2022/05/05 07:21:57;;;;;;;1.27;1.17;;;;;;;14.78;61.11;101668.03;4992835;28;102165;-48
2022/05/05 07:24:24;;;;;;;2.65;1.80;;;;;;;14.79;61.00;101664.22;4990813;28;104041;-48
2022/05/05 07:26:50;;;;;;;2.85;1.90;;;;;;;14.79;60.97;101658.75;4991585;28;102420;-48
2022/05/05 07:29:17;;;;;;;2.47;1.67;;;;;;;14.80;61.25;101668.59;4990754;28;101927;-47
2022/05/05 07:31:46;;;;;;;2.05;1.80;;;;;;;14.80;61.07;101663.13;4991911;28;102151;-48
2022/05/05 07:34:12;;;;;;;2.30;1.50;;;;;;;14.80;61.19;101671.34;4990307;28;103684;-47
2022/05/05 07:36:39;;;;;;;2.05;1.38;;;;;;;14.81;60.66;101678.44;5008350;28;102022;-48
2022/05/05 07:39:05;;;;;;;2.50;1.45;;;;;;;14.81;61.05;101675.72;5010793;28;101929;-47
2022/05/05 07:41:32;;;;;;;2.08;1.50;;;;;;;14.83;61.06;101676.28;5011764;28;102290;-48
2022/05/05 07:44:00;;;;;;;2.63;1.65;;;;;;;14.82;60.82;101685.56;5010391;28;103794;-47
2022/05/05 07:46:26;;;;;;;1.80;1.55;;;;;;;14.82;60.66;101682.81;5010460;28;102615;-48
2022/05/05 07:48:55;;;;;;;1.98;1.50;;;;;;;14.81;60.66;101672.97;4997229;28;102383;-48
2022/05/05 07:51:21;;;;;;;1.48;1.17;;;;;;;14.82;60.64;101674.59;4995823;28;102350;-46
2022/05/05 07:56:35;;;;;;;2.28;1.50;;;;;;;14.82;60.20;101678.19;4997133;28;101907;-47
2022/05/05 07:59:02;;;;;;;1.70;1.45;;;;;;;14.81;60.04;101683.94;5014292;28;101875;-47
2022/05/05 08:01:29;;;;;;;1.80;1.35;;;;;;;14.82;60.07;101682.81;5015353;28;102259;-48
2022/05/05 08:03:56;;;;;;;2.30;1.50;;;;;;;14.82;59.97;101685.56;5004751;28;104055;-48
2022/05/05 08:06:23;;;;;;;3.10;1.83;;;;;;;14.82;60.65;101680.94;4994329;28;102274;-47
2022/05/05 08:08:49;;;;;;;2.17;1.40;;;;;;;14.82;59.81;101680.94;4994318;28;102063;-48
2022/05/05 08:11:16;;;;;;;1.80;1.50;;;;;;;14.81;59.73;101671.03;4996231;28;102322;-47
2022/05/05 08:13:42;;;;;;;1.80;1.25;;;;;;;14.82;59.87;101680.09;5002400;28;103253;-45
2022/05/05 08:16:11;;;;;;;1.50;1.40;;;;;;;14.82;60.27;101669.97;4998327;28;103589;-47
2022/05/05 08:18:38;;;;;;;2.85;1.40;;;;;;;14.83;60.09;101681.75;5003106;28;102054;-47
2022/05/05 08:21:09;;;;;;;2.03;1.50;;;;;;;14.81;59.44;101670.22;5000150;28;102105;-46
2022/05/05 08:23:36;;;;;;;1.88;1.50;;;;;;;14.82;59.58;101674.59;5001337;28;104199;-47
2022/05/05 08:28:50;;;;;;;2.05;1.42;;;;;;;14.80;59.14;101687.78;4994087;28;102031;-48
2022/05/05 08:31:17;;;;;;;2.50;1.33;;;;;;;14.79;59.16;101683.41;5006376;28;102407;-47
2022/05/05 08:33:43;;;;;;;1.52;1.30;;;;;;;14.78;59.11;101682.56;5013539;28;103857;-47
2022/05/05 08:36:14;;;;;;;1.33;1.23;;;;;;;14.77;58.62;101683.66;5014096;28;102257;-48
2022/05/05 08:38:49;;;;;;;2.03;1.40;;;;;;;14.77;58.69;101678.19;5013787;28;102347;-47
2022/05/05 08:41:18;;;;;;;2.50;1.40;;;;;;;14.76;58.99;101676.53;5007607;28;102715;-48
2022/05/05 08:43:57;;;;;;;1.80;1.35;;;;;;;14.77;58.24;101669.16;5012216;28;103966;-48
2022/05/05 08:46:34;;;;;;;1.90;1.35;;;;;;;14.77;58.68;101682.84;5014053;28;102027;-49
2022/05/05 08:49:03;;;;;;;2.83;1.40;;;;;;;14.77;58.53;101682.84;4996806;28;102117;-47
2022/05/05 08:51:42;;;;;;;2.50;1.20;;;;;;;14.77;58.36;101677.38;4995185;28;102431;-47
2022/05/05 08:54:29;;;;;;;2.23;1.43;;;;;;;14.76;58.40;101671.06;4998218;28;103961;-47
2022/05/05 08:56:58;;;;;;;2.03;1.25;;;;;;;14.74;57.78;101667.78;5000791;28;102591;-47
2022/05/05 08:59:27;;;;;;;2.10;1.67;;;;;;;14.75;57.74;101669.44;5008977;28;102583;-48
2022/05/05 09:01:58;;;;;;;1.70;1.30;;;;;;;14.74;57.85;101672.44;5004090;28;104086;-48
2022/05/05 09:04:27;;;;;;;1.98;1.38;;;;;;;14.74;57.72;101665.03;5002170;28;103830;-47
2022/05/05 09:07:01;;;;;;;1.85;1.10;;;;;;;14.74;58.08;101665.03;5002451;28;102654;-46
2022/05/05 09:09:34;;;;;;;2.25;1.20;;;;;;;14.75;58.08;101663.09;4996199;28;102476;-48
2022/05/05 09:12:12;;;;;;;2.33;1.33;;;;;;;14.76;58.59;101662.84;5008423;28;102651;-48
2022/05/05 09:14:44;;;;;;;1.75;1.13;;;;;;;14.76;58.47;101670.25;4998634;28;103864;-48
2022/05/05 09:17:13;;;;;;;1.95;1.30;;;;;;;14.78;58.50;101668.03;4993919;28;102255;-47
2022/05/05 09:19:55;;;;;;;1.30;1.17;;;;;;;14.76;58.62;101648.31;5009632;28;102587;-48
2022/05/05 09:22:24;;;;;;;1.45;1.27;;;;;;;14.77;58.94;101660.94;5013769;28;102466;-49
2022/05/05 09:25:09;;;;;;;1.48;1.30;;;;;;;14.78;58.61;101665.28;5008846;27;103952;-47
2022/05/05 09:27:35;;;;;;;1.90;1.15;;;;;;;14.78;58.96;101662.56;5012642;28;101924;-50
2022/05/05 09:30:15;;;;;;;2.03;1.27;;;;;;;14.77;58.87;101661.75;5012913;28;102279;-48
2022/05/05 09:32:45;;;;;;;1.40;1.25;;;;;;;14.78;58.97;101651.59;5008746;28;102750;-47
2022/05/05 09:35:13;;;;;;;1.88;1.52;;;;;;;14.80;59.05;101663.13;5010447;28;104404;-47
2022/05/05 09:37:45;;;;;;;2.03;1.20;;;;;;;14.78;59.01;101665.28;5021805;28;102166;-48
2022/05/05 09:40:17;;;;;;;2.08;1.40;;;;;;;14.78;58.92;101668.84;5007170;28;102417;-47
2022/05/05 09:42:50;;;;;;;1.85;1.27;;;;;;;14.80;58.83;101660.38;5000825;28;102162;-48
2022/05/05 09:45:26;;;;;;;1.75;1.30;;;;;;;14.79;58.73;101669.69;4992818;28;104006;-49
2022/05/05 09:48:01;;;;;;;1.73;1.40;;;;;;;14.80;58.76;101668.59;5012649;28;102022;-47
2022/05/05 09:50:47;;;;;;;1.45;1.23;;;;;;;14.80;58.76;101671.34;4992047;28;103001;-48
2022/05/05 09:59:02;;;;;;;1.55;1.15;;;;;;;14.79;58.99;101675.19;4998092;28;102822;-47
2022/05/05 10:01:42;;;;;;;1.65;1.10;;;;;;;14.78;58.82;101662.56;5010570;28;102373;-49
2022/05/05 10:04:14;;;;;;;1.17;0.98;;;;;;;14.78;58.74;101668.03;5002938;28;102343;-47
2022/05/05 10:06:47;;;;;;;1.27;1.10;;;;;;;14.78;58.72;101659.81;5008669;28;103965;-48
2022/05/05 10:09:35;;;;;;;1.92;1.20;;;;;;;14.78;58.57;101668.03;4992552;28;102179;-49
2022/05/05 10:12:14;;;;;;;1.92;1.30;;;;;;;14.77;58.49;101666.41;4992082;28;102261;-47
2022/05/05 10:14:40;;;;;;;;;;;;;;;14.76;58.61;101664.78;5006884;28;102308;-47
2022/05/05 10:17:10;;;;;;;2.63;1.40;;;;;;;14.76;58.42;101664.78;5011615;28;103899;-49
2022/05/05 10:19:39;;;;;;;1.63;1.30;;;;;;;14.75;58.34;101668.59;4993472;28;102291;-48
2022/05/05 10:22:08;;;;;;;;;;;;;;;14.76;58.07;101659.28;5012716;28;102296;-48
2022/05/05 10:24:49;;;;;;;1.75;1.33;;;;;;;14.74;57.84;101673.25;5011505;28;102451;-45
2022/05/05 10:27:19;;;;;;;1.63;1.17;;;;;;;14.74;57.94;101672.44;5011667;28;103963;-50
2022/05/05 10:29:47;;;;;;;1.27;1.00;;;;;;;14.75;58.03;101682.28;5012351;28;102312;-48
2022/05/05 10:32:39;;;;;;;2.45;1.10;;;;;;;14.74;58.03;101672.44;5001328;28;102412;-48
2022/05/05 10:35:21;;;;;;;3.80;1.38;;;;;;;14.73;57.88;101665.31;4997828;28;102181;-48
2022/05/05 10:37:50;;;;;;;3.22;1.35;;;;;;;14.71;57.36;101672.97;5002459;28;103900;-48
2022/05/05 10:40:20;;;;;;;1.33;1.15;;;;;;;14.70;57.15;101665.88;5002607;28;102543;-45
2022/05/05 10:42:51;;;;;;;1.80;1.17;;;;;;;14.70;57.43;101654.91;5002040;28;102699;-48
2022/05/05 10:45:32;;;;;;;2.30;1.20;;;;;;;14.69;57.41;101656.81;5001259;28;102582;-48
2022/05/05 10:48:12;;;;;;;2.05;1.40;;;;;;;14.70;57.16;101668.59;5003486;28;104083;-48
2022/05/05 10:50:44;;;;;;;4.03;1.30;;;;;;;14.70;57.03;101671.34;4992623;28;102335;-49
2022/05/05 10:53:36;;;;;;;1.95;1.27;;;;;;;14.69;57.16;101669.72;5007991;28;102159;-48
2022/05/05 10:56:23;;;;;;;4.85;1.85;;;;;;;14.68;56.91;101670.78;5011915;28;102039;-46
2022/05/05 10:59:13;;;;;;;2.13;1.38;;;;;;;14.66;56.79;101660.94;4997600;28;103815;-47
2022/05/05 11:01:58;;;;;;;2.20;1.30;;;;;;;14.66;56.77;101660.13;4989583;28;103506;-48
2022/05/05 11:04:30;;;;;;;2.17;1.60;;;;;;;14.65;56.69;101664.78;5004175;28;102240;-48
2022/05/05 11:07:27;;;;;;;2.00;1.30;;;;;;;14.65;56.85;101670.25;5005421;28;102280;-48
2022/05/05 11:09:55;;;;;;;2.35;1.30;;;;;;;14.66;56.72;101671.06;4990940;28;103681;-47
2022/05/05 11:12:34;;;;;;;4.15;1.40;;;;;;;14.65;57.10;101664.78;4991385;28;101896;-45
2022/05/05 11:23:47;;;;;;;1.88;1.30;;;;;;;14.65;57.22;101670.25;5008263;28;102465;-47
2022/05/05 11:26:15;;;;;;;3.38;1.08;;;;;;;14.66;57.35;101666.41;5011576;28;102042;-47
2022/05/05 11:28:45;;;;;;;1.55;1.02;;;;;;;14.65;57.00;101670.25;5010429;28;102678;-47
2022/05/05 11:31:20;;;;;;;1.35;1.20;;;;;;;14.64;57.23;101668.63;4989783;28;103926;-48
2022/05/05 11:33:49;;;;;;;2.78;1.50;;;;;;;14.64;56.86;101674.09;4991582;28;102443;-49
2022/05/05 11:36:18;;;;;;;1.92;1.45;;;;;;;14.64;56.71;101668.63;4995906;28;103643;-47
2022/05/05 11:38:44;;;;;;;;;;;;;;;14.63;57.23;101672.44;5008767;28;102399;-47
2022/05/05 11:41:23;;;;;;;1.50;1.40;;;;;;;14.65;57.17;101674.91;4990758;28;103713;-47
2022/05/05 11:44:17;;;;;;;3.08;1.40;;;;;;;14.64;57.26;101668.63;4996546;28;102075;-48
2022/05/05 11:46:46;;;;;;;1.65;1.20;;;;;;;14.64;57.28;101674.09;4993619;28;101920;-47
2022/05/05 11:49:25;;;;;;;1.30;1.20;;;;;;;14.64;57.20;101679.59;5002312;28;102087;-47
2022/05/05 11:51:56;;;;;;;2.70;1.50;;;;;;;14.65;57.62;101674.91;4999471;28;103982;-47
2022/05/05 11:54:27;;;;;;;1.67;1.35;;;;;;;14.64;57.25;101663.13;4993395;28;101966;-47
2022/05/05 11:56:57;;;;;;;2.63;1.77;;;;;;;14.64;57.78;101663.13;5008907;28;102439;-47
2022/05/05 12:02:12;;;;;;;1.45;1.20;;;;;;;14.64;57.45;101668.63;5010394;28;103994;-46
2022/05/05 12:04:44;;;;;;;3.35;1.58;;;;;;;14.64;57.54;101671.38;5000974;28;102341;-48
2022/05/05 12:07:23;;;;;;;1.80;1.13;;;;;;;14.64;57.78;101663.13;5000972;28;102032;-47
2022/05/05 12:09:53;;;;;;;1.60;1.50;;;;;;;14.65;57.65;101669.44;5006009;28;102603;-46
2022/05/05 12:12:20;;;;;;;;;;;;;;;14.64;57.96;101663.13;5000472;28;103963;-48